TFM - Tactical Decision Aid
ID: Runway Winds: CIG/VIS Threshold:

KCUB - Columbia/Downtown, SC, US

Updated at: 0851 UTC 26 Jan 2020
Latest TAF at: 0528 UTC 26 Jan 2020

TAF Board

Time0753Z 26/09Z 26/10Z 26/11Z 26/12Z 26/13Z 26/14Z 26/15Z 26/16Z 26/17Z 26/18Z 26/19Z 26/20Z 26/21Z>>
Type OBS PRVL PRVL PRVL PRVL PRVL PRVL PRVL PRVL PRVL PRVL PRVL PRVL PRVL
VIS 10 >6 >6 >6 >6 >6 >6 >6 >6 >6 >6 >6 >6 >6
CIG -- 250 250 250 250 250 -- -- -- -- -- -- -- --
Cover CLR BKN BKN BKN BKN BKN SCT SCT SCT SCT SCT SCT SCT SCT
FltCat VFR VFR VFR VFR VFR VFR VFR VFR VFR VFR VFR VFR VFR VFR
WX -- -- -- -- -- -- -- -- -- -- -- -- -- --
WDir 250 VRB VRB VRB VRB VRB 290 290 290 290 290 290 290 290
WSpd 3 3 3 3 3 3 5 5 5 5 5 5 5 5
WGst -- -- -- -- -- -- -- -- -- -- -- -- -- --

TDA Impact Legend

  None Marginal Slight Moderate High
Visibility (sm) >5 3≤X≤5 2≤X<3 1≤X<2 <1
Ceiling (100 ft) >30 10≤X≤30 8≤X<10 5≤X<8 <5
Wind Speed (kt) <15 15≤X<25 25≤X<30 ≥30
Wind Gust (kt) <15 15≤X<25 25≤X<35 ≥35
Weather No Wx Reported VCTS -TS,-FZRA TS,FZRA +TS,+FZRA
TAF
KCUB 260528Z 2606/2706 VRB03KT P6SM BKN250
  FM261400 29005KT P6SM SCT250
  FM270500 00000KT P6SM BKN080 OVC150


METAR
KCUB 260753Z AUTO 25003KT 10SM CLR 05/01 A3005 RMK AO2 SLP176 T00500006
KCUB 260653Z AUTO 22003KT 10SM CLR 05/01 A3005 RMK AO2 SLP174 T00500011
KCUB 260553Z AUTO 24004KT 10SM CLR 06/01 A3005 RMK AO2 SLP177 T00560011 10100 20056 50001

Radar Display
Forecast Discussion